Terminal Aerodrome Forecast
Issued by NWS Pittsburgh, PA

Current Version | Previous Version | Graphics & Text | Print | Product List | Glossary On
Versions: 1 2 3 4 5 6 7 8 9 10 11 12 13 14 15 16 17 18 19 20 21 22 23 24 25 26 27 28
000
FTUS41 KPBZ 180300 AAA
TAFPIT
TAF AMD
KPIT 180300Z 1803/1906 29018G23KT P6SM -SHSN OVC027
     FM180500 29010KT P6SM OVC020
     FM181600 26012KT P6SM OVC025
     FM190100 27005KT P6SM OVC025=

USA.gov is the U.S. government's official web portal to all federal, state and local government web resources and services.